Time,TemperatureF,DewpointF,PressureIn,WindDirection,WindDirectionDegrees,WindSpeedMPH,WindSpeedGustMPH,Humidity,HourlyPrecipIn,Conditions,Clouds,dailyrainin,SolarRadiationWatts/m^2,SoftwareType,DateUTC
2013-03-19 00:02:00,54.4,49.7,30.07,West,274,0.0,0.0,84,0.00,CLR,,0.00,0.0,WeatherDisplay:10.37,2013-03-19 07:02:00,
2013-03-19 00:07:00,54.4,50.0,30.07,West,274,0.0,0.0,85,0.00,CLR,,0.00,0.0,WeatherDisplay:10.37,2013-03-19 07:07:00,
2013-03-19 00:12:00,54.2,49.5,30.07,West,274,1.1,0.0,84,0.00,CLR,,0.00,0.0,WeatherDisplay:10.37,2013-03-19 07:12:00,
2013-03-19 00:17:00,54.0,49.6,30.07,West,274,0.0,0.0,85,0.00,CLR,,0.00,0.0,WeatherDisplay:10.37,2013-03-19 07:17:00,
2013-03-19 00:22:00,53.8,49.4,30.08,West,274,0.0,0.0,85,0.00,CLR,,0.00,0.0,WeatherDisplay:10.37,2013-03-19 07:22:00,
2013-03-19 00:27:00,53.7,49.3,30.07,West,274,0.0,0.0,85,0.00,CLR,,0.00,0.0,WeatherDisplay:10.37,2013-03-19 07:27:00,
2013-03-19 00:32:00,53.6,49.5,30.07,West,274,0.0,0.0,86,0.00,CLR,,0.00,0.0,WeatherDisplay:10.37,2013-03-19 07:32:00,
2013-03-19 00:37:00,53.5,49.4,30.08,West,274,0.0,0.0,86,0.00,CLR,,0.00,0.0,WeatherDisplay:10.37,2013-03-19 07:37:00,
2013-03-19 00:42:00,53.4,49.3,30.07,West,274,0.0,0.0,86,0.00,CLR,,0.00,0.0,WeatherDisplay:10.37,2013-03-19 07:42:00,
2013-03-19 00:47:00,53.2,49.1,30.07,West,274,0.0,0.0,86,0.00,CLR,,0.00,0.0,WeatherDisplay:10.37,2013-03-19 07:47:00,
2013-03-19 00:52:00,53.1,49.0,30.07,West,274,0.0,0.0,86,0.00,CLR,,0.00,0.0,WeatherDisplay:10.37,2013-03-19 07:52:00,
2013-03-19 00:57:00,53.0,48.9,30.06,West,275,0.0,0.0,86,0.00,CLR,,0.00,0.0,WeatherDisplay:10.37,2013-03-19 07:57:00,
2013-03-19 01:02:00,52.9,48.8,30.07,West,274,0.0,0.0,86,0.00,CLR,,0.00,0.0,WeatherDisplay:10.37,2013-03-19 08:02:00,
2013-03-19 01:07:00,52.8,49.0,30.07,West,274,0.0,0.0,87,0.00,CLR,,0.00,0.0,WeatherDisplay:10.37,2013-03-19 08:07:00,
2013-03-19 01:12:00,52.8,49.0,30.07,West,275,0.0,0.0,87,0.00,CLR,,0.00,0.0,WeatherDisplay:10.37,2013-03-19 08:12:00,
2013-03-19 01:17:00,52.8,49.0,30.07,West,275,1.1,0.0,87,0.00,CLR,,0.00,0.0,WeatherDisplay:10.37,2013-03-19 08:17:00,
2013-03-19 01:22:00,52.7,48.9,30.07,West,274,0.0,0.0,87,0.00,CLR,,0.00,0.0,WeatherDisplay:10.37,2013-03-19 08:22:00,
2013-03-19 01:27:00,52.7,48.9,30.07,West,274,0.0,0.0,87,0.00,CLR,,0.00,0.0,WeatherDisplay:10.37,2013-03-19 08:27:00,
2013-03-19 01:32:00,52.6,48.8,30.07,West,274,0.0,0.0,87,0.00,CLR,,0.00,0.0,WeatherDisplay:10.37,2013-03-19 08:32:00,
2013-03-19 01:37:00,52.6,49.1,30.07,West,274,0.0,0.0,88,0.00,CLR,,0.00,0.0,WeatherDisplay:10.37,2013-03-19 08:37:00,
2013-03-19 01:42:00,52.4,48.6,30.07,West,275,1.1,0.0,87,0.00,CLR,,0.00,0.0,WeatherDisplay:10.37,2013-03-19 08:42:00,
2013-03-19 01:48:00,52.2,48.8,30.07,West,274,0.0,0.0,88,0.00,CLR,,0.00,0.0,WeatherDisplay:10.37,2013-03-19 08:48:00,
2013-03-19 01:53:00,52.1,48.7,30.07,West,274,0.0,0.0,88,0.00,CLR,,0.00,0.0,WeatherDisplay:10.37,2013-03-19 08:53:00,
2013-03-19 01:58:00,52.1,48.7,30.07,West,275,0.0,0.0,88,0.00,CLR,,0.00,0.0,WeatherDisplay:10.37,2013-03-19 08:58:00,
2013-03-19 02:03:00,52.0,48.6,30.06,West,274,0.0,0.0,88,0.00,CLR,,0.00,0.0,WeatherDisplay:10.37,2013-03-19 09:03:00,
2013-03-19 02:08:00,52.0,48.6,30.06,West,274,1.0,0.0,88,0.00,CLR,,0.00,0.0,WeatherDisplay:10.37,2013-03-19 09:08:00,
2013-03-19 02:13:00,52.0,48.6,30.06,West,274,0.0,0.0,88,0.00,CLR,,0.00,0.0,WeatherDisplay:10.37,2013-03-19 09:13:00,
2013-03-19 02:18:00,51.9,48.5,30.06,West,274,0.0,0.0,88,0.00,CLR,,0.00,0.0,WeatherDisplay:10.37,2013-03-19 09:18:00,
2013-03-19 02:23:00,51.7,48.3,30.06,West,274,0.0,0.0,88,0.00,CLR,,0.00,0.0,WeatherDisplay:10.37,2013-03-19 09:23:00,
2013-03-19 02:28:00,51.6,48.2,30.07,West,274,1.1,0.0,88,0.00,CLR,,0.00,0.0,WeatherDisplay:10.37,2013-03-19 09:28:00,
2013-03-19 02:33:00,51.5,48.4,30.07,West,274,0.0,0.0,89,0.00,CLR,,0.00,0.0,WeatherDisplay:10.37,2013-03-19 09:33:00,
2013-03-19 02:38:00,51.3,48.2,30.06,West,274,0.0,0.0,89,0.00,CLR,,0.00,0.0,WeatherDisplay:10.37,2013-03-19 09:38:00,
2013-03-19 02:43:00,51.3,48.2,30.07,West,274,0.0,0.0,89,0.00,CLR,,0.00,0.0,WeatherDisplay:10.37,2013-03-19 09:43:00,
2013-03-19 02:48:00,51.2,48.1,30.07,West,274,0.0,0.0,89,0.00,CLR,,0.00,0.0,WeatherDisplay:10.37,2013-03-19 09:48:00,
2013-03-19 02:53:00,51.0,47.9,30.07,West,274,0.0,0.0,89,0.00,CLR,,0.00,0.0,WeatherDisplay:10.37,2013-03-19 09:53:00,
2013-03-19 02:58:00,51.1,48.0,30.07,West,274,0.0,0.0,89,0.00,CLR,,0.00,0.0,WeatherDisplay:10.37,2013-03-19 09:58:00,
2013-03-19 03:03:00,51.1,48.3,30.07,West,274,0.0,0.0,90,0.00,CLR,,0.00,0.0,WeatherDisplay:10.37,2013-03-19 10:03:00,
2013-03-19 03:08:00,51.1,48.0,30.07,West,274,0.0,0.0,89,0.00,CLR,,0.00,0.0,WeatherDisplay:10.37,2013-03-19 10:08:00,
2013-03-19 03:13:00,51.0,47.9,30.07,West,274,0.0,0.0,89,0.00,CLR,,0.00,0.0,WeatherDisplay:10.37,2013-03-19 10:13:00,
2013-03-19 03:18:00,51.0,48.2,30.08,West,274,0.0,0.0,90,0.00,CLR,,0.00,0.0,WeatherDisplay:10.37,2013-03-19 10:18:00,
2013-03-19 03:23:00,51.2,48.4,30.08,West,274,1.1,1.1,90,0.00,CLR,,0.00,0.0,WeatherDisplay:10.37,2013-03-19 10:23:00,
2013-03-19 03:28:00,51.3,48.5,30.08,West,274,1.1,0.0,90,0.00,CLR,,0.00,0.0,WeatherDisplay:10.37,2013-03-19 10:28:00,
2013-03-19 03:33:00,51.3,48.5,30.07,West,275,0.0,0.0,90,0.00,CLR,,0.00,0.0,WeatherDisplay:10.37,2013-03-19 10:33:00,
2013-03-19 03:38:00,51.2,48.1,30.07,West,274,0.0,0.0,89,0.00,CLR,,0.00,0.0,WeatherDisplay:10.37,2013-03-19 10:38:00,
2013-03-19 03:43:00,51.0,47.9,30.07,West,274,0.0,0.0,89,0.00,CLR,,0.00,0.0,WeatherDisplay:10.37,2013-03-19 10:43:00,
2013-03-19 03:48:00,50.9,47.8,30.07,West,275,1.1,1.1,89,0.00,CLR,,0.00,0.0,WeatherDisplay:10.37,2013-03-19 10:48:00,
2013-03-19 03:53:00,50.8,48.0,30.07,West,275,1.1,1.1,90,0.00,CLR,,0.00,0.0,WeatherDisplay:10.37,2013-03-19 10:53:00,
2013-03-19 03:58:00,50.6,47.5,30.07,West,274,1.0,0.0,89,0.00,CLR,,0.00,0.0,WeatherDisplay:10.37,2013-03-19 10:58:00,
2013-03-19 04:03:00,50.6,47.8,30.07,West,275,1.1,1.1,90,0.00,CLR,,0.00,0.0,WeatherDisplay:10.37,2013-03-19 11:03:00,
2013-03-19 04:08:00,50.5,47.7,30.06,West,275,1.1,1.1,90,0.00,CLR,,0.00,0.0,WeatherDisplay:10.37,2013-03-19 11:08:00,
2013-03-19 04:13:00,50.4,47.6,30.06,West,275,1.1,1.1,90,0.00,CLR,,0.00,0.0,WeatherDisplay:10.37,2013-03-19 11:13:00,
2013-03-19 04:18:00,50.3,47.5,30.06,West,274,1.1,1.1,90,0.00,CLR,,0.00,0.0,WeatherDisplay:10.37,2013-03-19 11:18:00,
2013-03-19 04:23:00,50.3,47.5,30.06,West,274,1.1,1.1,90,0.00,CLR,,0.00,0.0,WeatherDisplay:10.37,2013-03-19 11:23:00,
2013-03-19 04:28:00,50.9,48.4,30.06,West,274,0.0,0.0,91,0.00,CLR,,0.00,0.0,WeatherDisplay:10.37,2013-03-19 11:28:00,
2013-03-19 04:33:00,51.0,48.5,30.06,West,274,1.1,1.1,91,0.00,CLR,,0.00,0.0,WeatherDisplay:10.37,2013-03-19 11:33:00,
2013-03-19 04:38:00,50.9,48.1,30.06,West,275,2.3,2.3,90,0.00,CLR,,0.00,0.0,WeatherDisplay:10.37,2013-03-19 11:38:00,
2013-03-19 04:43:00,50.5,47.7,30.06,West,275,1.1,1.1,90,0.00,CLR,,0.00,0.0,WeatherDisplay:10.37,2013-03-19 11:43:00,
2013-03-19 04:48:00,50.5,47.7,30.06,West,275,1.1,1.1,90,0.00,CLR,,0.00,0.0,WeatherDisplay:10.37,2013-03-19 11:48:00,
2013-03-19 04:53:00,50.5,48.0,30.05,West,281,2.3,2.3,91,0.00,CLR,,0.00,0.0,WeatherDisplay:10.37,2013-03-19 11:53:00,
2013-03-19 04:58:00,50.5,48.0,30.06,WNW,282,2.3,2.3,91,0.00,CLR,,0.00,0.0,WeatherDisplay:10.37,2013-03-19 11:58:00,
2013-03-19 05:03:00,50.6,48.1,30.05,WNW,282,2.3,2.3,91,0.00,CLR,,0.00,0.0,WeatherDisplay:10.37,2013-03-19 12:03:00,
2013-03-19 05:08:00,50.7,48.2,30.05,WNW,284,2.3,2.3,91,0.00,CLR,,0.00,0.0,WeatherDisplay:10.37,2013-03-19 12:08:00,
2013-03-19 05:13:00,50.8,48.3,30.06,WNW,284,1.1,0.0,91,0.00,CLR,,0.00,0.0,WeatherDisplay:10.37,2013-03-19 12:13:00,
2013-03-19 05:18:00,50.8,48.3,30.06,WNW,284,2.3,2.3,91,0.00,CLR,,0.00,0.0,WeatherDisplay:10.37,2013-03-19 12:18:00,
2013-03-19 05:23:00,50.8,48.3,30.06,WNW,284,0.0,0.0,91,0.00,CLR,,0.00,0.0,WeatherDisplay:10.37,2013-03-19 12:23:00,
2013-03-19 05:28:00,50.8,48.3,30.06,WNW,287,2.3,2.3,91,0.00,CLR,,0.00,0.0,WeatherDisplay:10.37,2013-03-19 12:28:00,
2013-03-19 05:33:00,50.9,48.4,30.06,NNW,335,2.3,2.3,91,0.00,CLR,,0.00,0.0,WeatherDisplay:10.37,2013-03-19 12:33:00,
2013-03-19 05:38:00,51.0,48.5,30.06,NNW,338,2.3,2.3,91,0.00,CLR,,0.00,0.0,WeatherDisplay:10.37,2013-03-19 12:38:00,
2013-03-19 05:43:00,51.0,48.5,30.06,NNW,338,2.0,2.0,91,0.00,CLR,,0.00,0.0,WeatherDisplay:10.37,2013-03-19 12:43:00,
2013-03-19 05:48:00,51.1,48.6,30.06,NNW,338,1.1,1.1,91,0.00,CLR,,0.00,0.0,WeatherDisplay:10.37,2013-03-19 12:48:00,
2013-03-19 05:53:00,51.2,48.7,30.06,North,350,2.3,2.3,91,0.00,CLR,,0.00,0.0,WeatherDisplay:10.37,2013-03-19 12:53:00,
2013-03-19 05:58:00,51.2,48.7,30.06,North,350,2.3,2.3,91,0.00,CLR,,0.00,0.0,WeatherDisplay:10.37,2013-03-19 12:58:00,
2013-03-19 06:03:00,51.2,48.7,30.07,North,350,0.0,0.0,91,0.00,CLR,,0.00,0.0,WeatherDisplay:10.37,2013-03-19 13:03:00,
2013-03-19 06:08:00,51.2,48.7,30.07,North,350,0.0,0.0,91,0.00,CLR,,0.00,0.0,WeatherDisplay:10.37,2013-03-19 13:08:00,
2013-03-19 06:14:00,51.2,48.7,30.08,North,350,0.0,0.0,91,0.00,CLR,,0.00,0.0,WeatherDisplay:10.37,2013-03-19 13:14:00,
2013-03-19 06:19:00,51.2,48.7,30.08,North,350,0.0,0.0,91,0.00,CLR,,0.00,0.0,WeatherDisplay:10.37,2013-03-19 13:19:00,
2013-03-19 06:24:00,51.2,48.7,30.08,North,350,0.0,0.0,91,0.00,CLR,,0.00,0.0,WeatherDisplay:10.37,2013-03-19 13:24:00,
2013-03-19 06:29:00,51.1,48.6,30.07,North,350,0.0,0.0,91,0.00,CLR,,0.00,0.0,WeatherDisplay:10.37,2013-03-19 13:29:00,
2013-03-19 06:34:00,51.0,48.5,30.07,North,350,0.0,0.0,91,0.00,CLR,,0.00,0.0,WeatherDisplay:10.37,2013-03-19 13:34:00,
2013-03-19 06:39:00,50.9,48.4,30.07,North,350,1.0,1.0,91,0.00,CLR,,0.00,0.0,WeatherDisplay:10.37,2013-03-19 13:39:00,
2013-03-19 06:44:00,51.0,48.8,30.07,North,350,1.1,1.1,92,0.00,CLR,,0.00,0.0,WeatherDisplay:10.37,2013-03-19 13:44:00,
2013-03-19 06:49:00,51.1,48.9,30.07,North,5,2.3,2.3,92,0.00,CLR,,0.00,0.0,WeatherDisplay:10.37,2013-03-19 13:49:00,
2013-03-19 06:54:00,51.1,48.9,30.07,North,9,0.0,0.0,92,0.00,CLR,,0.00,0.0,WeatherDisplay:10.37,2013-03-19 13:54:00,
2013-03-19 06:59:00,51.1,48.9,30.08,North,9,0.0,0.0,92,0.00,CLR,,0.00,0.0,WeatherDisplay:10.37,2013-03-19 13:59:00,
2013-03-19 07:04:00,51.1,48.6,30.08,North,5,2.3,2.3,91,0.00,CLR,,0.00,7.0,WeatherDisplay:10.37,2013-03-19 14:04:00,
2013-03-19 07:09:00,51.2,49.0,30.08,North,5,2.3,2.3,92,0.00,SCT,,0.00,14.0,WeatherDisplay:10.37,2013-03-19 14:09:00,
2013-03-19 07:14:00,51.3,49.1,30.08,NE,54,3.5,3.5,92,0.00,SCT,,0.00,23.0,WeatherDisplay:10.37,2013-03-19 14:14:00,
2013-03-19 07:19:00,51.4,49.2,30.09,NE,55,1.1,0.0,92,0.00,SCT,,0.00,23.0,WeatherDisplay:10.37,2013-03-19 14:19:00,
2013-03-19 07:24:00,51.4,49.2,30.09,NE,56,1.1,0.0,92,0.00,BKN,,0.00,30.0,WeatherDisplay:10.37,2013-03-19 14:24:00,
2013-03-19 07:29:00,51.5,49.3,30.09,NE,56,0.0,0.0,92,0.00,SCT,,0.00,40.0,WeatherDisplay:10.37,2013-03-19 14:29:00,
2013-03-19 07:34:00,51.5,49.3,30.09,NE,56,0.0,0.0,92,0.00,SCT,,0.00,56.0,WeatherDisplay:10.37,2013-03-19 14:34:00,
2013-03-19 07:39:00,51.7,49.5,30.09,NE,56,1.1,0.0,92,0.00,SCT,,0.00,67.0,WeatherDisplay:10.37,2013-03-19 14:39:00,
2013-03-19 07:44:00,51.8,49.5,30.09,NE,56,0.0,0.0,92,0.00,SCT,,0.00,65.0,WeatherDisplay:10.37,2013-03-19 14:44:00,
2013-03-19 07:49:00,52.1,49.6,30.09,NE,56,0.0,0.0,91,0.00,BKN,,0.00,70.0,WeatherDisplay:10.37,2013-03-19 14:49:00,
2013-03-19 07:54:00,52.3,49.8,30.09,NE,56,0.0,0.0,91,0.00,BKN,,0.00,70.0,WeatherDisplay:10.37,2013-03-19 14:54:00,
2013-03-19 07:59:00,52.5,49.9,30.10,NE,56,1.1,1.1,91,0.00,BKN,,0.00,79.0,WeatherDisplay:10.37,2013-03-19 14:59:00,
2013-03-19 08:04:00,52.8,50.2,30.10,ENE,58,1.1,0.0,91,0.00,SCT,,0.00,116.0,WeatherDisplay:10.37,2013-03-19 15:04:00,
2013-03-19 08:09:00,53.1,50.5,30.10,ENE,58,0.0,0.0,91,0.00,SCT,,0.00,127.0,WeatherDisplay:10.37,2013-03-19 15:09:00,
2013-03-19 08:14:00,53.5,50.9,30.11,ENE,58,0.0,0.0,91,0.00,FEW,,0.00,156.0,WeatherDisplay:10.37,2013-03-19 15:14:00,
2013-03-19 08:19:00,54.2,51.6,30.11,ENE,58,0.0,0.0,91,0.00,FEW,,0.00,165.0,WeatherDisplay:10.37,2013-03-19 15:19:00,
2013-03-19 08:24:00,54.7,51.8,30.12,ENE,58,1.1,0.0,90,0.00,FEW,,0.00,186.0,WeatherDisplay:10.37,2013-03-19 15:24:00,
2013-03-19 08:29:00,54.9,51.4,30.12,ENE,58,1.1,0.0,88,0.00,SCT,,0.00,158.0,WeatherDisplay:10.37,2013-03-19 15:29:00,
2013-03-19 08:34:00,55.1,51.6,30.12,ENE,58,1.1,0.0,88,0.00,SCT,,0.00,192.0,WeatherDisplay:10.37,2013-03-19 15:34:00,
2013-03-19 08:39:00,55.5,52.0,30.12,ENE,58,1.0,1.0,88,0.00,SCT,,0.00,192.0,WeatherDisplay:10.37,2013-03-19 15:39:00,
2013-03-19 08:44:00,55.7,52.2,30.12,ENE,58,0.0,0.0,88,0.00,SCT,,0.00,185.0,WeatherDisplay:10.37,2013-03-19 15:44:00,
2013-03-19 08:49:00,55.8,51.7,30.12,SSW,204,2.3,2.3,86,0.00,BKN,,0.00,156.0,WeatherDisplay:10.37,2013-03-19 15:49:00,
2013-03-19 08:54:00,55.9,51.5,30.12,SSW,196,2.3,2.3,85,0.00,BKN,,0.00,162.0,WeatherDisplay:10.37,2013-03-19 15:54:00,
2013-03-19 08:59:00,56.0,51.6,30.12,South,188,3.5,3.5,85,0.00,BKN,,0.00,171.0,WeatherDisplay:10.37,2013-03-19 15:59:00,
2013-03-19 09:04:00,55.9,51.5,30.12,South,176,3.5,3.5,85,0.00,BKN,,0.00,162.0,WeatherDisplay:10.37,2013-03-19 16:04:00,
2013-03-19 09:09:00,55.9,51.5,30.12,South,176,2.0,2.0,85,0.00,BKN,,0.00,160.0,WeatherDisplay:10.37,2013-03-19 16:09:00,
2013-03-19 09:14:00,56.1,52.0,30.12,South,179,1.1,0.0,86,0.00,BKN,,0.00,171.0,WeatherDisplay:10.37,2013-03-19 16:14:00,
2013-03-19 09:19:00,56.3,51.8,30.12,South,174,2.3,2.3,85,0.00,BKN,,0.00,165.0,WeatherDisplay:10.37,2013-03-19 16:19:00,
2013-03-19 09:24:00,56.2,51.7,30.12,South,173,3.5,3.5,85,0.00,BKN,,0.00,160.0,WeatherDisplay:10.37,2013-03-19 16:24:00,
2013-03-19 09:29:00,56.2,51.7,30.12,South,173,2.3,2.3,85,0.00,BKN,,0.00,156.0,WeatherDisplay:10.37,2013-03-19 16:29:00,
2013-03-19 09:34:00,56.4,51.9,30.12,SSE,162,3.5,3.5,85,0.00,BKN,,0.00,156.0,WeatherDisplay:10.37,2013-03-19 16:34:00,
2013-03-19 09:39:00,56.6,51.8,30.12,SSE,165,1.1,0.0,84,0.00,BKN,,0.00,151.0,WeatherDisplay:10.37,2013-03-19 16:39:00,
2013-03-19 09:44:00,56.6,51.8,30.12,South,188,4.0,4.0,84,0.00,BKN,,0.00,137.0,WeatherDisplay:10.37,2013-03-19 16:44:00,
2013-03-19 09:49:00,56.7,51.9,30.12,SSE,163,4.6,4.6,84,0.00,BKN,,0.00,134.0,WeatherDisplay:10.37,2013-03-19 16:49:00,
2013-03-19 09:54:00,56.6,51.8,30.12,SSE,165,3.5,3.5,84,0.00,BKN,,0.00,111.0,WeatherDisplay:10.37,2013-03-19 16:54:00,
2013-03-19 09:59:00,56.6,51.5,30.12,SSE,166,3.5,3.5,83,0.00,BKN,,0.00,123.0,WeatherDisplay:10.37,2013-03-19 16:59:00,
2013-03-19 10:04:00,56.7,51.9,30.11,South,170,3.5,3.5,84,0.00,BKN,,0.00,130.0,WeatherDisplay:10.37,2013-03-19 17:04:00,
2013-03-19 10:09:00,56.8,51.7,30.11,South,170,3.5,3.5,83,0.00,BKN,,0.00,137.0,WeatherDisplay:10.37,2013-03-19 17:09:00,
2013-03-19 10:14:00,56.9,51.8,30.11,SSE,166,3.5,3.5,83,0.00,BKN,,0.00,128.0,WeatherDisplay:10.37,2013-03-19 17:14:00,
2013-03-19 10:19:00,57.1,52.0,30.11,South,181,4.6,4.6,83,0.00,BKN,,0.00,118.0,WeatherDisplay:10.37,2013-03-19 17:19:00,
2013-03-19 10:24:00,57.1,52.0,30.11,SSE,153,6.0,6.0,83,0.00,BKN,,0.00,153.0,WeatherDisplay:10.37,2013-03-19 17:24:00,
2013-03-19 10:29:00,57.1,52.0,30.11,SSE,164,4.0,4.0,83,0.00,BKN,,0.00,181.0,WeatherDisplay:10.37,2013-03-19 17:29:00,
2013-03-19 10:34:00,57.2,51.8,30.11,SSE,155,4.6,4.6,82,0.00,BKN,,0.00,169.0,WeatherDisplay:10.37,2013-03-19 17:34:00,
2013-03-19 10:39:00,57.3,51.9,30.12,SSW,209,5.0,5.0,82,0.00,BKN,,0.00,163.0,WeatherDisplay:10.37,2013-03-19 17:39:00,
2013-03-19 10:44:00,57.5,52.0,30.12,SSW,197,4.6,4.6,82,0.00,BKN,,0.00,162.0,WeatherDisplay:10.37,2013-03-19 17:44:00,
2013-03-19 10:49:00,57.6,52.1,30.12,South,191,3.5,3.5,82,0.00,BKN,,0.00,171.0,WeatherDisplay:10.37,2013-03-19 17:49:00,
2013-03-19 10:54:00,57.6,52.1,30.11,South,191,3.5,3.5,82,0.00,BKN,,0.00,185.0,WeatherDisplay:10.37,2013-03-19 17:54:00,
2013-03-19 10:59:00,57.7,52.2,30.12,SSW,198,2.0,2.0,82,0.00,BKN,,0.00,192.0,WeatherDisplay:10.37,2013-03-19 17:59:00,
2013-03-19 11:04:00,57.9,52.4,30.12,WSW,244,0.0,0.0,82,0.00,BKN,,0.00,206.0,WeatherDisplay:10.37,2013-03-19 18:04:00,
2013-03-19 11:09:00,58.3,52.5,30.12,WSW,244,3.5,3.5,81,0.00,BKN,,0.00,209.0,WeatherDisplay:10.37,2013-03-19 18:09:00,
2013-03-19 11:14:00,58.4,52.3,30.12,WSW,255,1.1,1.1,80,0.00,BKN,,0.00,192.0,WeatherDisplay:10.37,2013-03-19 18:14:00,
2013-03-19 11:19:00,58.6,52.4,30.12,WSW,257,2.3,2.3,80,0.00,BKN,,0.00,218.0,WeatherDisplay:10.37,2013-03-19 18:19:00,
2013-03-19 11:24:00,58.9,52.7,30.11,West,260,4.0,4.0,80,0.00,BKN,,0.00,202.0,WeatherDisplay:10.37,2013-03-19 18:24:00,
2013-03-19 11:29:00,58.9,52.4,30.11,West,260,3.5,3.5,79,0.00,BKN,,0.00,204.0,WeatherDisplay:10.37,2013-03-19 18:29:00,
2013-03-19 11:34:00,59.1,52.6,30.11,NW,311,4.0,4.0,79,0.00,BKN,,0.00,278.0,WeatherDisplay:10.37,2013-03-19 18:34:00,
2013-03-19 11:39:00,59.1,52.2,30.11,NNW,331,2.3,2.3,78,0.00,BKN,,0.00,302.0,WeatherDisplay:10.37,2013-03-19 18:39:00,
2013-03-19 11:44:00,59.3,52.4,30.11,NNW,337,2.3,2.3,78,0.00,BKN,,0.00,292.0,WeatherDisplay:10.37,2013-03-19 18:44:00,
2013-03-19 11:49:00,59.3,52.1,30.11,NNW,337,1.1,0.0,77,0.00,BKN,,0.00,297.0,WeatherDisplay:10.37,2013-03-19 18:49:00,
2013-03-19 11:54:00,59.7,52.5,30.11,NNE,17,2.3,2.3,77,0.00,BKN,,0.00,320.0,WeatherDisplay:10.37,2013-03-19 18:54:00,
2013-03-19 11:59:00,59.8,52.2,30.11,ESE,121,3.0,3.0,76,0.00,BKN,,0.00,362.0,WeatherDisplay:10.37,2013-03-19 18:59:00,
2013-03-19 12:04:00,60.0,52.4,30.11,ESE,116,5.8,5.8,76,0.00,BKN,,0.00,432.0,WeatherDisplay:10.37,2013-03-19 19:04:00,
2013-03-19 12:09:00,60.1,52.5,30.10,West,269,4.0,4.0,76,0.00,SCT,,0.00,513.0,WeatherDisplay:10.37,2013-03-19 19:09:00,
2013-03-19 12:14:00,60.6,52.6,30.10,West,275,3.5,3.5,75,0.00,CLR,,0.00,800.0,WeatherDisplay:10.37,2013-03-19 19:14:00,
2013-03-19 12:19:00,61.4,53.0,30.10,South,180,2.3,2.3,74,0.00,CLR,,0.00,805.0,WeatherDisplay:10.37,2013-03-19 19:19:00,
2013-03-19 12:24:00,62.0,52.9,30.10,East,84,3.0,3.0,72,0.00,CLR,,0.00,798.0,WeatherDisplay:10.37,2013-03-19 19:24:00,
2013-03-19 12:29:00,62.5,53.3,30.10,ENE,62,3.0,3.0,72,0.00,CLR,,0.00,779.0,WeatherDisplay:10.37,2013-03-19 19:29:00,
2013-03-19 12:35:00,62.5,52.6,30.10,West,271,4.6,4.6,70,0.00,CLR,,0.00,830.0,WeatherDisplay:10.37,2013-03-19 19:35:00,
2013-03-19 12:40:00,62.7,53.2,30.10,WNW,300,4.0,4.0,71,0.00,CLR,,0.00,796.0,WeatherDisplay:10.37,2013-03-19 19:40:00,
2013-03-19 12:45:00,62.9,53.0,30.10,West,275,1.1,1.1,70,0.00,FEW,,0.00,740.0,WeatherDisplay:10.37,2013-03-19 19:45:00,
2013-03-19 12:50:00,63.2,52.9,30.10,SSE,148,2.3,2.3,69,0.00,FEW,,0.00,561.0,WeatherDisplay:10.37,2013-03-19 19:50:00,
2013-03-19 12:55:00,63.5,53.1,30.10,SSE,161,3.5,3.5,69,0.00,FEW,,0.00,735.0,WeatherDisplay:10.37,2013-03-19 19:55:00,
2013-03-19 13:00:00,63.8,53.4,30.10,South,182,2.3,2.3,69,0.00,FEW,,0.00,708.0,WeatherDisplay:10.37,2013-03-19 20:00:00,
2013-03-19 13:05:00,64.4,53.2,30.09,SSE,148,2.3,2.3,67,0.00,FEW,,0.00,682.0,WeatherDisplay:10.37,2013-03-19 20:05:00,
2013-03-19 13:10:00,64.6,53.4,30.08,ESE,118,3.5,3.5,67,0.00,FEW,,0.00,729.0,WeatherDisplay:10.37,2013-03-19 20:10:00,
2013-03-19 13:15:00,64.8,53.2,30.08,SSE,153,3.5,3.5,66,0.00,FEW,,0.00,684.0,WeatherDisplay:10.37,2013-03-19 20:15:00,
2013-03-19 13:20:00,64.8,53.6,30.08,South,190,3.5,3.5,67,0.00,FEW,,0.00,705.0,WeatherDisplay:10.37,2013-03-19 20:20:00,
2013-03-19 13:25:00,65.0,53.4,30.08,ESE,105,3.5,3.5,66,0.00,FEW,,0.00,647.0,WeatherDisplay:10.37,2013-03-19 20:25:00,
2013-03-19 13:30:00,65.0,52.9,30.08,South,189,5.0,5.0,65,0.00,FEW,,0.00,742.0,WeatherDisplay:10.37,2013-03-19 20:30:00,
2013-03-19 13:35:00,64.9,53.3,30.07,SSW,198,7.0,7.0,66,0.00,FEW,,0.00,738.0,WeatherDisplay:10.37,2013-03-19 20:35:00,
2013-03-19 13:40:00,65.0,52.9,30.07,WSW,240,3.5,3.5,65,0.00,FEW,,0.00,671.0,WeatherDisplay:10.37,2013-03-19 20:40:00,
2013-03-19 13:45:00,64.8,53.2,30.07,WSW,242,3.5,3.5,66,0.00,FEW,,0.00,679.0,WeatherDisplay:10.37,2013-03-19 20:45:00,
2013-03-19 13:50:00,65.2,53.6,30.07,WNW,300,2.3,2.3,66,0.00,SCT,,0.00,619.0,WeatherDisplay:10.37,2013-03-19 20:50:00,
2013-03-19 13:55:00,65.9,53.4,30.06,South,179,2.3,2.3,64,0.00,SCT,,0.00,664.0,WeatherDisplay:10.37,2013-03-19 20:55:00,
2013-03-19 14:00:00,66.3,53.8,30.06,SSW,200,5.8,5.8,64,0.00,FEW,,0.00,738.0,WeatherDisplay:10.37,2013-03-19 21:00:00,
2013-03-19 14:05:00,66.3,53.8,30.06,South,169,3.5,3.5,64,0.00,SCT,,0.00,584.0,WeatherDisplay:10.37,2013-03-19 21:05:00,
2013-03-19 14:10:00,66.9,53.5,30.06,West,274,4.6,4.6,62,0.00,FEW,,0.00,737.0,WeatherDisplay:10.37,2013-03-19 21:10:00,
2013-03-19 14:15:00,67.0,54.0,30.06,SSW,200,5.8,5.8,63,0.00,CLR,,0.00,761.0,WeatherDisplay:10.37,2013-03-19 21:15:00,
2013-03-19 14:20:00,67.0,53.5,30.06,SE,142,3.5,3.5,62,0.00,CLR,,0.00,747.0,WeatherDisplay:10.37,2013-03-19 21:20:00,
2013-03-19 14:25:00,67.6,54.1,30.06,SSE,155,5.8,5.8,62,0.00,CLR,,0.00,707.0,WeatherDisplay:10.37,2013-03-19 21:25:00,
2013-03-19 14:30:00,67.6,54.1,30.06,SSW,196,10.0,10.0,62,0.00,CLR,,0.00,721.0,WeatherDisplay:10.37,2013-03-19 21:30:00,
2013-03-19 14:35:00,67.3,54.3,30.05,South,184,5.8,5.8,63,0.00,FEW,,0.00,657.0,WeatherDisplay:10.37,2013-03-19 21:35:00,
2013-03-19 14:40:00,67.3,54.3,30.06,SSE,155,9.2,9.2,63,0.00,FEW,,0.00,649.0,WeatherDisplay:10.37,2013-03-19 21:40:00,
2013-03-19 14:45:00,67.2,54.2,30.05,SSW,204,8.1,8.1,63,0.00,CLR,,0.00,664.0,WeatherDisplay:10.37,2013-03-19 21:45:00,
2013-03-19 14:50:00,67.3,54.7,30.05,SSW,199,9.2,9.2,64,0.00,CLR,,0.00,677.0,WeatherDisplay:10.37,2013-03-19 21:50:00,
2013-03-19 14:55:00,67.2,54.6,30.05,SW,214,11.5,11.5,64,0.00,CLR,,0.00,675.0,WeatherDisplay:10.37,2013-03-19 21:55:00,
2013-03-19 15:00:00,67.0,54.8,30.05,SSE,167,9.0,9.0,65,0.00,CLR,,0.00,661.0,WeatherDisplay:10.37,2013-03-19 22:00:00,
2013-03-19 15:05:00,66.8,55.1,30.05,SSE,166,10.4,10.4,66,0.00,CLR,,0.00,649.0,WeatherDisplay:10.37,2013-03-19 22:05:00,
2013-03-19 15:10:00,66.5,54.8,30.05,South,173,12.0,12.0,66,0.00,CLR,,0.00,633.0,WeatherDisplay:10.37,2013-03-19 22:10:00,
2013-03-19 15:15:00,66.5,54.4,30.06,SSW,207,12.7,12.7,65,0.00,CLR,,0.00,619.0,WeatherDisplay:10.37,2013-03-19 22:15:00,
2013-03-19 15:20:00,66.4,54.7,30.05,SSW,212,10.4,10.4,66,0.00,CLR,,0.00,631.0,WeatherDisplay:10.37,2013-03-19 22:20:00,
2013-03-19 15:25:00,66.8,55.1,30.05,SSW,193,10.4,10.4,66,0.00,CLR,,0.00,624.0,WeatherDisplay:10.37,2013-03-19 22:25:00,
2013-03-19 15:30:00,67.0,54.8,30.05,SW,215,10.4,10.4,65,0.00,CLR,,0.00,610.0,WeatherDisplay:10.37,2013-03-19 22:30:00,
2013-03-19 15:35:00,67.5,54.9,30.05,SW,222,9.2,9.2,64,0.00,CLR,,0.00,568.0,WeatherDisplay:10.37,2013-03-19 22:35:00,
2013-03-19 15:40:00,67.4,54.8,30.05,South,184,9.2,9.2,64,0.00,CLR,,0.00,531.0,WeatherDisplay:10.37,2013-03-19 22:40:00,
2013-03-19 15:45:00,67.1,54.5,30.05,SSW,208,4.6,4.6,64,0.00,FEW,,0.00,504.0,WeatherDisplay:10.37,2013-03-19 22:45:00,
2013-03-19 15:50:00,67.5,54.5,30.05,SSW,194,8.1,8.1,63,0.00,CLR,,0.00,494.0,WeatherDisplay:10.37,2013-03-19 22:50:00,
2013-03-19 15:55:00,67.1,54.5,30.05,South,175,11.0,11.0,64,0.00,CLR,,0.00,510.0,WeatherDisplay:10.37,2013-03-19 22:55:00,
2013-03-19 16:00:00,66.5,54.4,30.05,SSW,194,8.0,8.0,65,0.00,CLR,,0.00,541.0,WeatherDisplay:10.37,2013-03-19 23:00:00,
2013-03-19 16:05:00,66.3,54.2,30.05,SSW,211,9.0,9.0,65,0.00,CLR,,0.00,503.0,WeatherDisplay:10.37,2013-03-19 23:05:00,
2013-03-19 16:10:00,66.4,54.3,30.05,WNW,293,9.0,9.0,65,0.00,CLR,,0.00,431.0,WeatherDisplay:10.37,2013-03-19 23:10:00,
2013-03-19 16:15:00,66.6,54.0,30.05,WNW,302,9.2,9.2,64,0.00,CLR,,0.00,439.0,WeatherDisplay:10.37,2013-03-19 23:15:00,
2013-03-19 16:20:00,66.1,53.6,30.05,West,260,9.2,9.2,64,0.00,FEW,,0.00,406.0,WeatherDisplay:10.37,2013-03-19 23:20:00,
2013-03-19 16:25:00,66.5,53.9,30.05,SSW,200,9.0,9.0,64,0.00,FEW,,0.00,390.0,WeatherDisplay:10.37,2013-03-19 23:25:00,
2013-03-19 16:30:00,66.3,53.8,30.05,SW,218,4.6,4.6,64,0.00,FEW,,0.00,345.0,WeatherDisplay:10.37,2013-03-19 23:30:00,
2013-03-19 16:35:00,66.1,53.6,30.05,West,266,8.0,8.0,64,0.00,CLR,,0.00,403.0,WeatherDisplay:10.37,2013-03-19 23:35:00,
2013-03-19 16:40:00,66.1,53.6,30.05,SSW,213,6.9,6.9,64,0.00,CLR,,0.00,374.0,WeatherDisplay:10.37,2013-03-19 23:40:00,
2013-03-19 16:45:00,66.3,53.8,30.05,WSW,252,8.1,8.1,64,0.00,CLR,,0.00,357.0,WeatherDisplay:10.37,2013-03-19 23:45:00,
2013-03-19 16:50:00,66.1,53.6,30.05,WSW,254,8.1,8.1,64,0.00,SCT,,0.00,297.0,WeatherDisplay:10.37,2013-03-19 23:50:00,
2013-03-19 16:55:00,66.2,53.7,30.06,WSW,240,5.8,5.8,64,0.00,SCT,,0.00,279.0,WeatherDisplay:10.37,2013-03-19 23:55:00,
2013-03-19 17:00:00,66.4,53.8,30.05,SSW,211,5.0,5.0,64,0.00,FEW,,0.00,279.0,WeatherDisplay:10.37,2013-03-20 00:00:00,
2013-03-19 17:05:00,65.8,52.9,30.05,SW,236,8.1,8.1,63,0.00,FEW,,0.00,250.0,WeatherDisplay:10.37,2013-03-20 00:05:00,
2013-03-19 17:11:00,65.8,52.9,30.05,WSW,248,7.0,7.0,63,0.00,CLR,,0.00,288.0,WeatherDisplay:10.37,2013-03-20 00:11:00,
2013-03-19 17:16:00,65.8,53.3,30.05,West,269,8.1,8.1,64,0.00,FEW,,0.00,246.0,WeatherDisplay:10.37,2013-03-20 00:16:00,
2013-03-19 17:21:00,66.1,53.6,30.05,SSW,212,5.8,5.8,64,0.00,CLR,,0.00,276.0,WeatherDisplay:10.37,2013-03-20 00:21:00,
2013-03-19 17:26:00,66.0,53.9,30.05,SSW,205,7.0,7.0,65,0.00,FEW,,0.00,213.0,WeatherDisplay:10.37,2013-03-20 00:26:00,
2013-03-19 17:31:00,65.3,53.6,30.05,SSW,207,9.0,9.0,66,0.00,CLR,,0.00,258.0,WeatherDisplay:10.37,2013-03-20 00:31:00,
2013-03-19 17:36:00,64.8,53.6,30.05,SSE,163,6.9,6.9,67,0.00,CLR,,0.00,246.0,WeatherDisplay:10.37,2013-03-20 00:36:00,
2013-03-19 17:41:00,64.7,53.9,30.05,SSW,194,7.0,7.0,68,0.00,SCT,,0.00,130.0,WeatherDisplay:10.37,2013-03-20 00:41:00,
2013-03-19 17:46:00,64.2,53.8,30.05,SSE,161,5.8,5.8,69,0.00,SCT,,0.00,144.0,WeatherDisplay:10.37,2013-03-20 00:46:00,
2013-03-19 17:51:00,64.0,53.6,30.05,SSW,197,6.0,6.0,69,0.00,SCT,,0.00,139.0,WeatherDisplay:10.37,2013-03-20 00:51:00,
2013-03-19 17:56:00,64.0,53.6,30.05,South,189,5.0,5.0,69,0.00,CLR,,0.00,165.0,WeatherDisplay:10.37,2013-03-20 00:56:00,
2013-03-19 18:01:00,64.0,53.2,30.05,SSW,205,5.0,5.0,68,0.00,FEW,,0.00,127.0,WeatherDisplay:10.37,2013-03-20 01:01:00,
2013-03-19 18:06:00,64.1,53.3,30.05,SSW,209,5.0,5.0,68,0.00,SCT,,0.00,104.0,WeatherDisplay:10.37,2013-03-20 01:06:00,
2013-03-19 18:11:00,63.6,53.2,30.05,SSW,198,5.8,5.8,69,0.00,SCT,,0.00,81.0,WeatherDisplay:10.37,2013-03-20 01:11:00,
2013-03-19 18:16:00,63.6,53.2,30.05,SSW,210,6.0,6.0,69,0.00,SCT,,0.00,62.0,WeatherDisplay:10.37,2013-03-20 01:16:00,
2013-03-19 18:21:00,63.5,53.1,30.06,SSW,203,4.6,4.6,69,0.00,BKN,,0.00,49.0,WeatherDisplay:10.37,2013-03-20 01:21:00,
2013-03-19 18:26:00,63.4,53.0,30.06,SSW,199,6.0,6.0,69,0.00,BKN,,0.00,44.0,WeatherDisplay:10.37,2013-03-20 01:26:00,
2013-03-19 18:31:00,63.2,52.9,30.06,SSW,193,6.0,6.0,69,0.00,SCT,,0.00,42.0,WeatherDisplay:10.37,2013-03-20 01:31:00,
2013-03-19 18:36:00,63.1,53.2,30.06,South,183,3.5,3.5,70,0.00,BKN,,0.00,30.0,WeatherDisplay:10.37,2013-03-20 01:36:00,
2013-03-19 18:41:00,62.9,53.4,30.06,SSE,161,4.0,4.0,71,0.00,BKN,,0.00,23.0,WeatherDisplay:10.37,2013-03-20 01:41:00,
2013-03-19 18:47:00,62.6,52.7,30.06,SW,217,5.8,5.8,70,0.00,BKN,,0.00,16.0,WeatherDisplay:10.37,2013-03-20 01:47:00,
2013-03-19 18:52:00,62.5,52.6,30.06,SW,215,4.6,4.6,70,0.00,BKN,,0.00,12.0,WeatherDisplay:10.37,2013-03-20 01:52:00,
2013-03-19 18:57:00,62.3,52.4,30.06,SSW,200,6.9,6.9,70,0.00,SCT,,0.00,5.0,WeatherDisplay:10.37,2013-03-20 01:57:00,
2013-03-19 19:02:00,62.2,52.3,30.06,SSW,213,8.1,8.1,70,0.00,CLR,,0.00,0.0,WeatherDisplay:10.37,2013-03-20 02:02:00,
2013-03-19 19:07:00,62.0,52.5,30.06,WSW,256,5.0,5.0,71,0.00,CLR,,0.00,0.0,WeatherDisplay:10.37,2013-03-20 02:07:00,
2013-03-19 19:12:00,61.7,52.2,30.07,West,262,3.5,3.5,71,0.00,CLR,,0.00,0.0,WeatherDisplay:10.37,2013-03-20 02:12:00,
2013-03-19 19:17:00,61.3,51.8,30.07,West,269,3.5,3.5,71,0.00,CLR,,0.00,0.0,WeatherDisplay:10.37,2013-03-20 02:17:00,
2013-03-19 19:22:00,61.0,51.9,30.07,West,269,4.6,4.6,72,0.00,CLR,,0.00,0.0,WeatherDisplay:10.37,2013-03-20 02:22:00,
2013-03-19 19:27:00,60.7,51.6,30.07,West,264,5.8,5.8,72,0.00,CLR,,0.00,0.0,WeatherDisplay:10.37,2013-03-20 02:27:00,
2013-03-19 19:32:00,60.4,51.7,30.07,West,271,5.8,5.8,73,0.00,CLR,,0.00,0.0,WeatherDisplay:10.37,2013-03-20 02:32:00,
2013-03-19 19:37:00,60.3,51.6,30.08,West,281,5.8,5.8,73,0.00,CLR,,0.00,0.0,WeatherDisplay:10.37,2013-03-20 02:37:00,
2013-03-19 19:42:00,60.1,51.8,30.08,WNW,296,5.8,5.8,74,0.00,CLR,,0.00,0.0,WeatherDisplay:10.37,2013-03-20 02:42:00,
2013-03-19 19:47:00,59.9,51.6,30.08,West,263,6.9,6.9,74,0.00,CLR,,0.00,0.0,WeatherDisplay:10.37,2013-03-20 02:47:00,
2013-03-19 19:52:00,59.7,51.8,30.08,West,259,5.0,5.0,75,0.00,CLR,,0.00,0.0,WeatherDisplay:10.37,2013-03-20 02:52:00,
2013-03-19 19:57:00,59.6,51.7,30.08,West,265,5.8,5.8,75,0.00,CLR,,0.00,0.0,WeatherDisplay:10.37,2013-03-20 02:57:00,
2013-03-19 20:02:00,59.5,51.6,30.08,West,267,4.0,4.0,75,0.00,CLR,,0.00,0.0,WeatherDisplay:10.37,2013-03-20 03:02:00,
2013-03-19 20:07:00,59.4,51.5,30.08,WSW,250,5.0,5.0,75,0.00,CLR,,0.00,0.0,WeatherDisplay:10.37,2013-03-20 03:07:00,
2013-03-19 20:12:00,59.3,51.7,30.08,West,263,1.1,1.1,76,0.00,CLR,,0.00,0.0,WeatherDisplay:10.37,2013-03-20 03:12:00,
2013-03-19 20:17:00,59.1,51.5,30.09,West,266,3.5,3.5,76,0.00,CLR,,0.00,0.0,WeatherDisplay:10.37,2013-03-20 03:17:00,
2013-03-19 20:22:00,59.0,51.4,30.09,West,272,4.0,4.0,76,0.00,CLR,,0.00,0.0,WeatherDisplay:10.37,2013-03-20 03:22:00,
2013-03-19 20:27:00,58.9,51.7,30.09,West,280,4.0,4.0,77,0.00,CLR,,0.00,0.0,WeatherDisplay:10.37,2013-03-20 03:27:00,
2013-03-19 20:32:00,58.8,51.6,30.08,West,280,4.0,4.0,77,0.00,CLR,,0.00,0.0,WeatherDisplay:10.37,2013-03-20 03:32:00,
2013-03-19 20:37:00,58.6,51.8,30.09,West,281,5.0,5.0,78,0.00,CLR,,0.00,0.0,WeatherDisplay:10.37,2013-03-20 03:37:00,
2013-03-19 20:42:00,58.5,51.7,30.09,West,279,4.6,4.6,78,0.00,CLR,,0.00,0.0,WeatherDisplay:10.37,2013-03-20 03:42:00,
2013-03-19 20:47:00,58.4,51.6,30.09,WNW,284,3.5,3.5,78,0.00,CLR,,0.00,0.0,WeatherDisplay:10.37,2013-03-20 03:47:00,
2013-03-19 20:52:00,58.2,51.4,30.09,WNW,284,3.5,3.5,78,0.00,CLR,,0.00,0.0,WeatherDisplay:10.37,2013-03-20 03:52:00,
2013-03-19 20:58:00,58.1,51.6,30.09,WNW,284,3.0,3.0,79,0.00,CLR,,0.00,0.0,WeatherDisplay:10.37,2013-03-20 03:58:00,
2013-03-19 21:00:00,58.1,51.6,30.09,WNW,284,3.5,3.5,79,0.00,CLR,,0.00,0.0,WeatherDisplay:10.37,2013-03-20 04:00:00,
2013-03-19 21:01:00,58.1,51.6,30.09,WNW,284,3.5,3.5,79,0.00,CLR,,0.00,0.0,WeatherDisplay:10.37,2013-03-20 04:01:00,
2013-03-19 21:06:00,58.0,51.5,30.09,WNW,284,3.0,3.0,79,0.00,CLR,,0.00,0.0,WeatherDisplay:10.37,2013-03-20 04:06:00,
2013-03-19 21:11:00,58.0,51.5,30.10,WNW,283,2.3,2.3,79,0.00,CLR,,0.00,0.0,WeatherDisplay:10.37,2013-03-20 04:11:00,
2013-03-19 21:16:00,57.9,51.8,30.10,West,272,4.0,4.0,80,0.00,CLR,,0.00,0.0,WeatherDisplay:10.37,2013-03-20 04:16:00,
2013-03-19 21:21:00,57.8,51.7,30.10,WSW,258,5.0,5.0,80,0.00,CLR,,0.00,0.0,WeatherDisplay:10.37,2013-03-20 04:21:00,
2013-03-19 21:26:00,57.7,51.6,30.10,West,263,3.5,3.5,80,0.00,CLR,,0.00,0.0,WeatherDisplay:10.37,2013-03-20 04:26:00,
2013-03-19 21:31:00,57.6,51.5,30.10,West,260,3.5,3.5,80,0.00,CLR,,0.00,0.0,WeatherDisplay:10.37,2013-03-20 04:31:00,
2013-03-19 21:36:00,57.5,51.7,30.10,WSW,256,4.0,4.0,81,0.00,CLR,,0.00,0.0,WeatherDisplay:10.37,2013-03-20 04:36:00,
2013-03-19 21:41:00,57.5,51.7,30.10,West,264,3.5,3.5,81,0.00,CLR,,0.00,0.0,WeatherDisplay:10.37,2013-03-20 04:41:00,
2013-03-19 21:46:00,57.4,51.6,30.11,West,265,3.5,3.5,81,0.00,CLR,,0.00,0.0,WeatherDisplay:10.37,2013-03-20 04:46:00,
2013-03-19 21:51:00,57.3,51.9,30.11,West,265,3.5,3.5,82,0.00,CLR,,0.00,0.0,WeatherDisplay:10.37,2013-03-20 04:51:00,
2013-03-19 21:57:00,57.2,51.8,30.11,West,260,2.3,2.3,82,0.00,CLR,,0.00,0.0,WeatherDisplay:10.37,2013-03-20 04:57:00,
2013-03-19 22:02:00,57.1,51.7,30.11,West,260,1.1,1.1,82,0.00,CLR,,0.00,0.0,WeatherDisplay:10.37,2013-03-20 05:02:00,
2013-03-19 22:07:00,57.1,51.7,30.11,West,266,4.0,4.0,82,0.00,CLR,,0.00,0.0,WeatherDisplay:10.37,2013-03-20 05:07:00,
2013-03-19 22:12:00,57.0,51.6,30.11,West,273,4.6,4.6,82,0.00,CLR,,0.00,0.0,WeatherDisplay:10.37,2013-03-20 05:12:00,
2013-03-19 22:17:00,57.0,51.6,30.11,West,273,4.6,4.6,82,0.00,CLR,,0.00,0.0,WeatherDisplay:10.37,2013-03-20 05:17:00,
2013-03-19 22:22:00,57.0,51.9,30.11,West,273,1.1,0.0,83,0.00,CLR,,0.00,0.0,WeatherDisplay:10.37,2013-03-20 05:22:00,
2013-03-19 22:27:00,56.9,51.8,30.11,West,273,2.3,2.3,83,0.00,CLR,,0.00,0.0,WeatherDisplay:10.37,2013-03-20 05:27:00,
2013-03-19 22:32:00,56.8,51.7,30.10,West,273,0.0,0.0,83,0.00,CLR,,0.00,0.0,WeatherDisplay:10.37,2013-03-20 05:32:00,
2013-03-19 22:37:00,56.8,51.7,30.11,West,273,1.1,0.0,83,0.00,CLR,,0.00,0.0,WeatherDisplay:10.37,2013-03-20 05:37:00,
2013-03-19 22:42:00,56.8,51.7,30.12,West,273,3.5,3.5,83,0.00,CLR,,0.00,0.0,WeatherDisplay:10.37,2013-03-20 05:42:00,
2013-03-19 22:47:00,56.9,51.8,30.11,West,273,1.1,1.1,83,0.00,CLR,,0.00,0.0,WeatherDisplay:10.37,2013-03-20 05:47:00,
2013-03-19 22:52:00,56.9,51.8,30.12,West,273,2.3,2.3,83,0.00,CLR,,0.00,0.0,WeatherDisplay:10.37,2013-03-20 05:52:00,
2013-03-19 22:57:00,56.9,51.8,30.11,West,273,0.0,0.0,83,0.00,CLR,,0.00,0.0,WeatherDisplay:10.37,2013-03-20 05:57:00,
2013-03-19 23:02:00,56.8,51.7,30.11,West,273,0.0,0.0,83,0.00,CLR,,0.00,0.0,WeatherDisplay:10.37,2013-03-20 06:02:00,
2013-03-19 23:07:00,56.6,51.5,30.10,West,273,2.3,2.3,83,0.00,CLR,,0.00,0.0,WeatherDisplay:10.37,2013-03-20 06:07:00,
2013-03-19 23:12:00,56.4,51.6,30.12,WSW,254,5.0,5.0,84,0.00,CLR,,0.00,0.0,WeatherDisplay:10.37,2013-03-20 06:12:00,
2013-03-19 23:17:00,56.6,51.8,30.12,WSW,253,5.8,5.8,84,0.00,CLR,,0.00,0.0,WeatherDisplay:10.37,2013-03-20 06:17:00,
2013-03-19 23:23:00,56.6,51.8,30.12,WSW,253,2.3,2.3,84,0.00,CLR,,0.00,0.0,WeatherDisplay:10.37,2013-03-20 06:23:00,
2013-03-19 23:28:00,56.6,51.8,30.12,WSW,253,2.3,2.3,84,0.00,CLR,,0.00,0.0,WeatherDisplay:10.37,2013-03-20 06:28:00,
2013-03-19 23:33:00,56.6,51.8,30.12,WSW,253,2.3,2.3,84,0.00,CLR,,0.00,0.0,WeatherDisplay:10.37,2013-03-20 06:33:00,
2013-03-19 23:38:00,56.5,51.7,30.12,WSW,254,2.3,2.3,84,0.00,CLR,,0.00,0.0,WeatherDisplay:10.37,2013-03-20 06:38:00,
2013-03-19 23:43:00,56.4,51.6,30.11,WSW,254,1.0,0.0,84,0.00,CLR,,0.00,0.0,WeatherDisplay:10.37,2013-03-20 06:43:00,
2013-03-19 23:48:00,56.2,51.4,30.11,WSW,254,0.0,0.0,84,0.00,CLR,,0.00,0.0,WeatherDisplay:10.37,2013-03-20 06:48:00,
2013-03-19 23:53:00,56.0,51.2,30.10,WSW,254,0.0,0.0,84,0.00,CLR,,0.00,0.0,WeatherDisplay:10.37,2013-03-20 06:53:00,
2013-03-19 23:58:00,55.9,51.1,30.10,WSW,254,0.0,0.0,84,0.00,CLR,,0.00,0.0,WeatherDisplay:10.37,2013-03-20 06:58:00,